sensor_id;sensor_type;location;lat;lon;timestamp;pressure;altitude;pressure_sealevel;temperature;humidity
49545;BME280;74870;42.636;23.302;2024-03-17T00:00:42;93372.25;;;7.67;67.37
49545;BME280;74870;42.636;23.302;2024-03-17T00:03:07;93366.75;;;7.73;67.19
49545;BME280;74870;42.636;23.302;2024-03-17T00:05:37;93369.88;;;7.75;67.24
49545;BME280;74870;42.636;23.302;2024-03-17T00:08:04;93343.25;;;7.63;67.25
49545;BME280;74870;42.636;23.302;2024-03-17T00:10:33;93371.44;;;7.76;67.16
49545;BME280;74870;42.636;23.302;2024-03-17T00:12:59;93370.94;;;7.69;67.40
49545;BME280;74870;42.636;23.302;2024-03-17T00:15:26;93362.34;;;7.58;67.73
49545;BME280;74870;42.636;23.302;2024-03-17T00:17:51;93373.03;;;7.67;67.41
49545;BME280;74870;42.636;23.302;2024-03-17T00:20:17;93344.59;;;7.50;67.39
49545;BME280;74870;42.636;23.302;2024-03-17T00:22:49;93368.34;;;7.69;67.32
49545;BME280;74870;42.636;23.302;2024-03-17T00:25:16;93364.41;;;7.67;67.01
49545;BME280;74870;42.636;23.302;2024-03-17T00:27:43;93368.38;;;7.59;67.00
49545;BME280;74870;42.636;23.302;2024-03-17T00:30:10;93364.97;;;7.58;66.88
49545;BME280;74870;42.636;23.302;2024-03-17T00:32:40;93358.47;;;7.51;66.89
49545;BME280;74870;42.636;23.302;2024-03-17T00:35:07;93353.75;;;7.48;66.82
49545;BME280;74870;42.636;23.302;2024-03-17T00:37:33;93358.22;;;7.42;66.92
49545;BME280;74870;42.636;23.302;2024-03-17T00:40:01;93356.13;;;7.34;67.39
49545;BME280;74870;42.636;23.302;2024-03-17T00:42:26;93358.19;;;7.37;67.18
49545;BME280;74870;42.636;23.302;2024-03-17T00:44:51;93352.47;;;7.35;67.49
49545;BME280;74870;42.636;23.302;2024-03-17T00:47:17;93359.78;;;7.33;67.54
49545;BME280;74870;42.636;23.302;2024-03-17T00:49:42;93338.66;;;7.25;67.51
49545;BME280;74870;42.636;23.302;2024-03-17T00:52:08;93343.88;;;7.25;67.23
49545;BME280;74870;42.636;23.302;2024-03-17T00:54:33;93349.88;;;7.15;67.49
49545;BME280;74870;42.636;23.302;2024-03-17T00:56:58;93264.59;;;6.55;67.36
49545;BME280;74870;42.636;23.302;2024-03-17T00:59:24;93347.81;;;7.12;66.85
49545;BME280;74870;42.636;23.302;2024-03-17T01:01:49;93362.97;;;7.10;67.40
49545;BME280;74870;42.636;23.302;2024-03-17T01:04:14;93364.25;;;6.98;68.14
49545;BME280;74870;42.636;23.302;2024-03-17T01:06:40;93317.28;;;6.47;68.53
49545;BME280;74870;42.636;23.302;2024-03-17T01:09:06;93341.84;;;6.76;68.21
49545;BME280;74870;42.636;23.302;2024-03-17T01:11:32;93369.50;;;6.98;68.30
49545;BME280;74870;42.636;23.302;2024-03-17T01:13:57;93368.97;;;6.91;68.31
49545;BME280;74870;42.636;23.302;2024-03-17T01:16:22;93362.72;;;6.87;68.39
49545;BME280;74870;42.636;23.302;2024-03-17T01:18:48;93365.03;;;6.93;68.30
49545;BME280;74870;42.636;23.302;2024-03-17T01:21:14;93364.00;;;6.94;68.13
49545;BME280;74870;42.636;23.302;2024-03-17T01:23:39;93350.44;;;6.82;68.17
49545;BME280;74870;42.636;23.302;2024-03-17T01:26:04;93351.75;;;6.85;68.25
49545;BME280;74870;42.636;23.302;2024-03-17T01:28:30;93308.16;;;6.55;68.50
49545;BME280;74870;42.636;23.302;2024-03-17T01:30:56;93352.53;;;6.80;67.95
49545;BME280;74870;42.636;23.302;2024-03-17T01:33:21;93365.84;;;6.89;67.62
49545;BME280;74870;42.636;23.302;2024-03-17T01:35:46;93369.22;;;6.89;67.41
49545;BME280;74870;42.636;23.302;2024-03-17T01:38:12;93363.25;;;6.89;67.33
49545;BME280;74870;42.636;23.302;2024-03-17T01:40:37;93354.88;;;6.82;67.45
49545;BME280;74870;42.636;23.302;2024-03-17T01:43:03;93361.66;;;6.83;67.42
49545;BME280;74870;42.636;23.302;2024-03-17T01:45:30;93357.75;;;6.80;67.42
49545;BME280;74870;42.636;23.302;2024-03-17T01:47:57;93356.19;;;6.74;67.62
49545;BME280;74870;42.636;23.302;2024-03-17T01:50:25;93361.91;;;6.81;67.17
49545;BME280;74870;42.636;23.302;2024-03-17T01:52:53;93358.03;;;6.78;67.68
49545;BME280;74870;42.636;23.302;2024-03-17T01:55:20;93351.75;;;6.74;67.77
49545;BME280;74870;42.636;23.302;2024-03-17T01:57:46;93358.28;;;6.72;67.66
49545;BME280;74870;42.636;23.302;2024-03-17T02:00:11;93348.09;;;6.70;67.42
49545;BME280;74870;42.636;23.302;2024-03-17T02:02:37;93347.28;;;6.65;67.63
49545;BME280;74870;42.636;23.302;2024-03-17T02:05:03;93350.94;;;6.59;67.91
49545;BME280;74870;42.636;23.302;2024-03-17T02:07:29;93351.22;;;6.52;67.72
49545;BME280;74870;42.636;23.302;2024-03-17T02:09:56;93337.63;;;6.45;67.63
49545;BME280;74870;42.636;23.302;2024-03-17T02:12:21;93351.97;;;6.53;67.78
49545;BME280;74870;42.636;23.302;2024-03-17T02:14:47;93353.56;;;6.54;67.92
49545;BME280;74870;42.636;23.302;2024-03-17T02:17:12;93363.22;;;6.48;68.44
49545;BME280;74870;42.636;23.302;2024-03-17T02:19:38;93361.09;;;6.45;68.45
49545;BME280;74870;42.636;23.302;2024-03-17T02:22:09;93364.75;;;6.49;68.66
49545;BME280;74870;42.636;23.302;2024-03-17T02:24:35;93368.41;;;6.53;68.70
49545;BME280;74870;42.636;23.302;2024-03-17T02:27:00;93363.19;;;6.43;69.09
49545;BME280;74870;42.636;23.302;2024-03-17T02:29:26;93354.88;;;6.46;68.47
49545;BME280;74870;42.636;23.302;2024-03-17T02:31:51;93346.50;;;6.49;67.93
49545;BME280;74870;42.636;23.302;2024-03-17T02:34:17;93334.22;;;6.35;68.04
49545;BME280;74870;42.636;23.302;2024-03-17T02:36:42;93359.53;;;6.49;67.92
49545;BME280;74870;42.636;23.302;2024-03-17T02:39:08;93355.34;;;6.38;68.25
49545;BME280;74870;42.636;23.302;2024-03-17T02:41:51;93355.09;;;6.40;68.25
49545;BME280;74870;42.636;23.302;2024-03-17T02:44:17;93354.59;;;6.38;68.38
49545;BME280;74870;42.636;23.302;2024-03-17T02:46:42;93350.91;;;6.39;68.31
49545;BME280;74870;42.636;23.302;2024-03-17T02:49:08;93350.66;;;6.40;68.00
49545;BME280;74870;42.636;23.302;2024-03-17T02:51:39;93340.47;;;6.29;67.87
49545;BME280;74870;42.636;23.302;2024-03-17T02:54:04;93343.09;;;6.34;67.63
49545;BME280;74870;42.636;23.302;2024-03-17T02:56:31;93347.00;;;6.31;67.67
49545;BME280;74870;42.636;23.302;2024-03-17T02:58:57;93289.84;;;5.89;68.00
49545;BME280;74870;42.636;23.302;2024-03-17T03:01:22;93347.50;;;6.23;68.30
49545;BME280;74870;42.636;23.302;2024-03-17T03:03:48;93344.13;;;6.18;68.91
49545;BME280;74870;42.636;23.302;2024-03-17T03:06:15;93339.66;;;6.18;69.02
49545;BME280;74870;42.636;23.302;2024-03-17T03:08:43;93346.16;;;6.11;69.15
49545;BME280;74870;42.636;23.302;2024-03-17T03:11:10;93287.41;;;5.78;68.97
49545;BME280;74870;42.636;23.302;2024-03-17T03:13:39;93258.44;;;5.54;68.93
49545;BME280;74870;42.636;23.302;2024-03-17T03:16:09;93347.25;;;6.20;69.06
49545;BME280;74870;42.636;23.302;2024-03-17T03:18:38;93345.41;;;6.20;69.52
49545;BME280;74870;42.636;23.302;2024-03-17T03:21:06;93332.38;;;6.15;69.17
49545;BME280;74870;42.636;23.302;2024-03-17T03:23:32;93342.03;;;6.25;69.24
49545;BME280;74870;42.636;23.302;2024-03-17T03:25:59;93339.94;;;6.22;69.34
49545;BME280;74870;42.636;23.302;2024-03-17T03:28:25;93337.34;;;6.22;69.07
49545;BME280;74870;42.636;23.302;2024-03-17T03:30:51;93314.91;;;6.06;68.72
49545;BME280;74870;42.636;23.302;2024-03-17T03:33:18;93336.81;;;6.25;68.75
49545;BME280;74870;42.636;23.302;2024-03-17T03:35:43;93347.78;;;6.22;68.90
49545;BME280;74870;42.636;23.302;2024-03-17T03:38:09;93327.13;;;6.05;69.02
49545;BME280;74870;42.636;23.302;2024-03-17T03:40:34;93344.88;;;6.13;69.17
49545;BME280;74870;42.636;23.302;2024-03-17T03:43:00;93354.78;;;6.16;68.38
49545;BME280;74870;42.636;23.302;2024-03-17T03:45:25;93349.84;;;6.15;68.78
49545;BME280;74870;42.636;23.302;2024-03-17T03:47:51;93352.94;;;6.07;68.78
49545;BME280;74870;42.636;23.302;2024-03-17T03:50:20;93357.06;;;5.92;69.11
49545;BME280;74870;42.636;23.302;2024-03-17T03:52:46;93361.03;;;6.05;68.91
49545;BME280;74870;42.636;23.302;2024-03-17T03:55:12;93363.63;;;6.05;68.97
49545;BME280;74870;42.636;23.302;2024-03-17T03:57:43;93360.22;;;6.05;68.77
49545;BME280;74870;42.636;23.302;2024-03-17T04:00:14;93364.94;;;6.08;68.80
49545;BME280;74870;42.636;23.302;2024-03-17T04:02:50;93365.44;;;6.00;69.21
49545;BME280;74870;42.636;23.302;2024-03-17T04:05:17;93341.09;;;5.79;69.85
49545;BME280;74870;42.636;23.302;2024-03-17T04:07:43;93363.88;;;5.99;69.86
49545;BME280;74870;42.636;23.302;2024-03-17T04:10:11;93372.75;;;6.08;69.79
49545;BME280;74870;42.636;23.302;2024-03-17T04:12:37;93368.56;;;6.07;69.23
49545;BME280;74870;42.636;23.302;2024-03-17T04:15:04;93374.31;;;6.04;68.83
49545;BME280;74870;42.636;23.302;2024-03-17T04:17:31;93373.28;;;6.10;68.35
49545;BME280;74870;42.636;23.302;2024-03-17T04:19:57;93376.94;;;6.04;68.61
49545;BME280;74870;42.636;23.302;2024-03-17T04:22:23;93381.88;;;6.05;68.24
49545;BME280;74870;42.636;23.302;2024-03-17T04:24:49;93377.38;;;5.90;68.26
49545;BME280;74870;42.636;23.302;2024-03-17T04:27:27;93381.34;;;6.03;68.24
49545;BME280;74870;42.636;23.302;2024-03-17T04:29:54;93390.72;;;6.04;68.41
49545;BME280;74870;42.636;23.302;2024-03-17T04:32:20;93394.38;;;6.03;68.58
49545;BME280;74870;42.636;23.302;2024-03-17T04:34:46;93394.38;;;6.03;69.12
49545;BME280;74870;42.636;23.302;2024-03-17T04:37:12;93394.66;;;6.07;68.99
49545;BME280;74870;42.636;23.302;2024-03-17T04:39:41;93390.44;;;6.01;69.27
49545;BME280;74870;42.636;23.302;2024-03-17T04:42:11;93380.56;;;5.98;68.78
49545;BME280;74870;42.636;23.302;2024-03-17T04:44:37;93409.50;;;6.01;68.86
49545;BME280;74870;42.636;23.302;2024-03-17T04:47:03;93373.22;;;5.94;68.84
49545;BME280;74870;42.636;23.302;2024-03-17T04:49:41;93402.75;;;6.15;68.81
49545;BME280;74870;42.636;23.302;2024-03-17T04:52:09;93410.53;;;6.05;68.89
49545;BME280;74870;42.636;23.302;2024-03-17T04:54:34;93416.31;;;6.17;69.30
49545;BME280;74870;42.636;23.302;2024-03-17T04:57:00;93394.69;;;6.12;68.93
49545;BME280;74870;42.636;23.302;2024-03-17T04:59:26;93394.72;;;6.22;68.86
49545;BME280;74870;42.636;23.302;2024-03-17T05:01:52;93395.28;;;6.44;68.30
49545;BME280;74870;42.636;23.302;2024-03-17T05:04:18;93426.13;;;6.82;67.29
49545;BME280;74870;42.636;23.302;2024-03-17T05:06:43;93420.91;;;7.02;66.51
49545;BME280;74870;42.636;23.302;2024-03-17T05:09:21;93409.69;;;7.07;65.68
49545;BME280;74870;42.636;23.302;2024-03-17T05:11:46;93428.47;;;7.44;65.49
49545;BME280;74870;42.636;23.302;2024-03-17T05:14:12;93432.88;;;7.69;64.49
49545;BME280;74870;42.636;23.302;2024-03-17T05:16:38;93435.69;;;7.97;63.83
49545;BME280;74870;42.636;23.302;2024-03-17T05:19:04;93438.97;;;8.33;63.29
49545;BME280;74870;42.636;23.302;2024-03-17T05:21:30;93437.47;;;8.76;62.24
49545;BME280;74870;42.636;23.302;2024-03-17T05:23:56;93437.94;;;9.21;60.87
49545;BME280;74870;42.636;23.302;2024-03-17T05:26:23;93428.88;;;9.71;59.43
49545;BME280;74870;42.636;23.302;2024-03-17T05:28:49;93444.91;;;10.41;57.75
49545;BME280;74870;42.636;23.302;2024-03-17T05:31:15;93385.22;;;10.70;56.10
49545;BME280;74870;42.636;23.302;2024-03-17T05:33:43;93444.44;;;11.69;54.42
49545;BME280;74870;42.636;23.302;2024-03-17T05:36:08;93437.47;;;12.32;52.99
49545;BME280;74870;42.636;23.302;2024-03-17T05:38:34;93430.59;;;12.86;51.34
49545;BME280;74870;42.636;23.302;2024-03-17T05:41:00;93408.94;;;13.24;49.99
49545;BME280;74870;42.636;23.302;2024-03-17T05:43:27;93408.84;;;13.82;48.57
49545;BME280;74870;42.636;23.302;2024-03-17T05:45:54;93429.00;;;14.40;47.26
49545;BME280;74870;42.636;23.302;2024-03-17T05:48:20;93414.88;;;14.53;46.45
49545;BME280;74870;42.636;23.302;2024-03-17T05:50:46;93429.56;;;14.76;45.92
49545;BME280;74870;42.636;23.302;2024-03-17T05:53:12;93435.50;;;14.90;45.50
49545;BME280;74870;42.636;23.302;2024-03-17T05:55:37;93434.72;;;14.89;45.22
49545;BME280;74870;42.636;23.302;2024-03-17T05:58:04;93428.50;;;14.94;45.27
49545;BME280;74870;42.636;23.302;2024-03-17T06:00:30;93416.97;;;14.73;45.24
49545;BME280;74870;42.636;23.302;2024-03-17T06:02:56;93419.16;;;14.79;45.22
49545;BME280;74870;42.636;23.302;2024-03-17T06:05:22;93437.41;;;15.41;44.83
49545;BME280;74870;42.636;23.302;2024-03-17T06:07:48;93433.69;;;15.59;44.33
49545;BME280;74870;42.636;23.302;2024-03-17T06:10:13;93406.16;;;16.15;42.46
49545;BME280;74870;42.636;23.302;2024-03-17T06:12:39;93370.16;;;15.67;42.43
49545;BME280;74870;42.636;23.302;2024-03-17T06:15:04;93441.81;;;16.26;42.49
49545;BME280;74870;42.636;23.302;2024-03-17T06:17:31;93448.16;;;15.70;42.86
49545;BME280;74870;42.636;23.302;2024-03-17T06:19:56;93429.50;;;15.49;43.38
49545;BME280;74870;42.636;23.302;2024-03-17T06:22:22;93439.94;;;15.63;43.45
49545;BME280;74870;42.636;23.302;2024-03-17T06:24:48;93445.97;;;15.38;43.83
49545;BME280;74870;42.636;23.302;2024-03-17T06:27:14;93433.06;;;15.62;43.63
49545;BME280;74870;42.636;23.302;2024-03-17T06:29:40;93454.56;;;15.52;43.86
49545;BME280;74870;42.636;23.302;2024-03-17T06:32:05;93458.88;;;15.39;44.33
49545;BME280;74870;42.636;23.302;2024-03-17T06:34:30;93457.47;;;15.07;45.14
49545;BME280;74870;42.636;23.302;2024-03-17T06:36:56;93462.78;;;15.25;45.05
49545;BME280;74870;42.636;23.302;2024-03-17T06:39:21;93462.34;;;15.65;43.86
49545;BME280;74870;42.636;23.302;2024-03-17T06:41:47;93465.72;;;15.32;44.89
49545;BME280;74870;42.636;23.302;2024-03-17T06:44:12;93476.50;;;15.69;44.30
49545;BME280;74870;42.636;23.302;2024-03-17T06:46:37;93474.47;;;15.58;44.08
49545;BME280;74870;42.636;23.302;2024-03-17T06:49:03;93464.19;;;15.48;44.27
49545;BME280;74870;42.636;23.302;2024-03-17T06:51:28;93422.66;;;15.48;43.92
49545;BME280;74870;42.636;23.302;2024-03-17T06:53:54;93473.09;;;15.69;43.79
49545;BME280;74870;42.636;23.302;2024-03-17T06:56:19;93473.97;;;15.04;45.04
49545;BME280;74870;42.636;23.302;2024-03-17T06:58:44;93460.41;;;14.97;45.14
49545;BME280;74870;42.636;23.302;2024-03-17T07:01:10;93468.88;;;15.59;43.79
49545;BME280;74870;42.636;23.302;2024-03-17T07:03:35;93471.94;;;15.36;44.74
49545;BME280;74870;42.636;23.302;2024-03-17T07:06:02;93473.81;;;15.18;44.69
49545;BME280;74870;42.636;23.302;2024-03-17T07:08:29;93415.63;;;14.92;44.24
49545;BME280;74870;42.636;23.302;2024-03-17T07:10:59;93471.16;;;15.35;44.58
49545;BME280;74870;42.636;23.302;2024-03-17T07:13:28;93456.19;;;14.88;46.05
49545;BME280;74870;42.636;23.302;2024-03-17T07:15:54;93469.28;;;15.01;44.98
49545;BME280;74870;42.636;23.302;2024-03-17T07:18:19;93469.09;;;14.89;45.57
49545;BME280;74870;42.636;23.302;2024-03-17T07:20:45;93467.44;;;15.28;44.60
49545;BME280;74870;42.636;23.302;2024-03-17T07:23:13;93470.47;;;14.87;45.23
49545;BME280;74870;42.636;23.302;2024-03-17T07:25:39;93470.56;;;14.65;45.67
49545;BME280;74870;42.636;23.302;2024-03-17T07:28:05;93472.25;;;14.52;45.79
49545;BME280;74870;42.636;23.302;2024-03-17T07:30:30;93464.41;;;14.39;46.32
49545;BME280;74870;42.636;23.302;2024-03-17T07:32:55;93477.91;;;14.06;46.73
49545;BME280;74870;42.636;23.302;2024-03-17T07:35:21;93474.44;;;14.59;46.18
49545;BME280;74870;42.636;23.302;2024-03-17T07:37:46;93474.19;;;14.77;46.20
49545;BME280;74870;42.636;23.302;2024-03-17T07:40:12;93467.44;;;14.23;45.63
49545;BME280;74870;42.636;23.302;2024-03-17T07:42:37;93473.03;;;14.22;46.44
49545;BME280;74870;42.636;23.302;2024-03-17T07:45:03;93446.41;;;13.57;47.68
49545;BME280;74870;42.636;23.302;2024-03-17T07:47:29;93448.56;;;13.55;48.05
49545;BME280;74870;42.636;23.302;2024-03-17T07:50:02;93466.41;;;13.00;48.89
49545;BME280;74870;42.636;23.302;2024-03-17T07:52:30;93469.34;;;12.44;50.61
49545;BME280;74870;42.636;23.302;2024-03-17T07:54:55;93480.63;;;12.04;51.54
49545;BME280;74870;42.636;23.302;2024-03-17T07:57:21;93477.78;;;11.87;52.33
49545;BME280;74870;42.636;23.302;2024-03-17T07:59:49;93478.28;;;11.89;52.81
49545;BME280;74870;42.636;23.302;2024-03-17T08:02:16;93481.47;;;11.86;53.37
49545;BME280;74870;42.636;23.302;2024-03-17T08:04:42;93490.19;;;11.68;52.62
49545;BME280;74870;42.636;23.302;2024-03-17T08:07:07;93492.41;;;11.61;53.12
49545;BME280;74870;42.636;23.302;2024-03-17T08:09:33;93487.19;;;11.74;53.88
49545;BME280;74870;42.636;23.302;2024-03-17T08:11:58;93479.47;;;12.10;53.25
49545;BME280;74870;42.636;23.302;2024-03-17T08:14:23;93482.94;;;11.92;52.54
49545;BME280;74870;42.636;23.302;2024-03-17T08:16:49;93480.50;;;11.82;52.67
49545;BME280;74870;42.636;23.302;2024-03-17T08:19:14;93484.81;;;11.59;53.62
49545;BME280;74870;42.636;23.302;2024-03-17T08:21:40;93479.53;;;11.59;54.12
49545;BME280;74870;42.636;23.302;2024-03-17T08:24:05;93476.47;;;11.52;53.76
49545;BME280;74870;42.636;23.302;2024-03-17T08:26:30;93472.59;;;11.82;53.83
49545;BME280;74870;42.636;23.302;2024-03-17T08:28:56;93477.28;;;11.85;53.02
49545;BME280;74870;42.636;23.302;2024-03-17T08:31:22;93476.69;;;11.74;53.04
49545;BME280;74870;42.636;23.302;2024-03-17T08:33:47;93481.03;;;11.98;53.35
49545;BME280;74870;42.636;23.302;2024-03-17T08:36:16;93479.34;;;11.88;53.54
49545;BME280;74870;42.636;23.302;2024-03-17T08:38:43;93478.13;;;12.13;52.76
49545;BME280;74870;42.636;23.302;2024-03-17T08:41:09;93465.44;;;12.28;52.48
49545;BME280;74870;42.636;23.302;2024-03-17T08:43:36;93471.81;;;12.68;52.12
49545;BME280;74870;42.636;23.302;2024-03-17T08:46:04;93456.84;;;13.04;50.58
49545;BME280;74870;42.636;23.302;2024-03-17T08:48:34;93454.59;;;13.33;50.45
49545;BME280;74870;42.636;23.302;2024-03-17T08:51:01;93422.38;;;13.36;49.95
49545;BME280;74870;42.636;23.302;2024-03-17T08:53:28;93457.22;;;13.33;49.83
49545;BME280;74870;42.636;23.302;2024-03-17T08:55:54;93461.31;;;13.39;50.85
49545;BME280;74870;42.636;23.302;2024-03-17T08:58:20;93443.53;;;13.23;50.33
49545;BME280;74870;42.636;23.302;2024-03-17T09:00:46;93449.13;;;12.94;50.76
49545;BME280;74870;42.636;23.302;2024-03-17T09:03:11;93442.69;;;12.87;51.28
49545;BME280;74870;42.636;23.302;2024-03-17T09:05:45;93446.31;;;12.91;51.63
49545;BME280;74870;42.636;23.302;2024-03-17T09:08:17;93442.13;;;12.76;51.66
49545;BME280;74870;42.636;23.302;2024-03-17T09:10:43;93436.66;;;12.86;50.86
49545;BME280;74870;42.636;23.302;2024-03-17T09:13:17;93446.50;;;12.94;50.24
49545;BME280;74870;42.636;23.302;2024-03-17T09:15:59;93436.56;;;12.78;50.65
49545;BME280;74870;42.636;23.302;2024-03-17T09:18:25;93440.34;;;12.85;51.07
49545;BME280;74870;42.636;23.302;2024-03-17T09:21:03;93431.06;;;12.88;50.04
49545;BME280;74870;42.636;23.302;2024-03-17T09:23:30;93433.72;;;12.88;50.34
49545;BME280;74870;42.636;23.302;2024-03-17T09:25:57;93438.41;;;12.91;50.47
49545;BME280;74870;42.636;23.302;2024-03-17T09:28:23;93413.59;;;12.92;48.36
49545;BME280;74870;42.636;23.302;2024-03-17T09:30:48;93430.19;;;12.92;48.09
49545;BME280;74870;42.636;23.302;2024-03-17T09:33:14;93428.22;;;12.98;47.79
49545;BME280;74870;42.636;23.302;2024-03-17T09:35:40;93409.59;;;12.94;47.49
49545;BME280;74870;42.636;23.302;2024-03-17T09:38:05;93404.16;;;13.26;48.68
49545;BME280;74870;42.636;23.302;2024-03-17T09:40:31;93415.56;;;13.66;47.88
49545;BME280;74870;42.636;23.302;2024-03-17T09:42:56;93413.25;;;13.65;47.59
49545;BME280;74870;42.636;23.302;2024-03-17T09:45:24;93416.97;;;13.94;45.51
49545;BME280;74870;42.636;23.302;2024-03-17T09:47:50;93410.53;;;14.09;45.13
49545;BME280;74870;42.636;23.302;2024-03-17T09:50:16;93416.94;;;14.25;44.09
49545;BME280;74870;42.636;23.302;2024-03-17T09:52:44;93417.06;;;14.11;42.39
49545;BME280;74870;42.636;23.302;2024-03-17T09:55:15;93416.28;;;14.42;41.22
49545;BME280;74870;42.636;23.302;2024-03-17T09:57:41;93409.50;;;14.66;41.87
49545;BME280;74870;42.636;23.302;2024-03-17T10:00:10;93368.56;;;14.47;40.42
49545;BME280;74870;42.636;23.302;2024-03-17T10:02:45;93416.09;;;14.94;40.23
49545;BME280;74870;42.636;23.302;2024-03-17T10:05:23;93420.44;;;14.90;37.97
49545;BME280;74870;42.636;23.302;2024-03-17T10:07:49;93405.47;;;14.77;33.65
49545;BME280;74870;42.636;23.302;2024-03-17T10:10:15;93423.00;;;14.65;34.17
49545;BME280;74870;42.636;23.302;2024-03-17T10:12:43;93406.81;;;14.18;32.99
49545;BME280;74870;42.636;23.302;2024-03-17T10:15:12;93388.06;;;13.89;36.18
49545;BME280;74870;42.636;23.302;2024-03-17T10:17:38;93430.94;;;13.95;36.85
49545;BME280;74870;42.636;23.302;2024-03-17T10:23:03;93409.94;;;13.90;39.57
49545;BME280;74870;42.636;23.302;2024-03-17T10:25:32;93380.31;;;13.62;38.05
49545;BME280;74870;42.636;23.302;2024-03-17T10:27:59;93386.91;;;13.73;37.06
49545;BME280;74870;42.636;23.302;2024-03-17T10:30:26;93420.72;;;14.02;39.53
49545;BME280;74870;42.636;23.302;2024-03-17T10:33:03;93416.22;;;14.02;40.11
49545;BME280;74870;42.636;23.302;2024-03-17T10:35:33;93416.88;;;14.08;39.43
49545;BME280;74870;42.636;23.302;2024-03-17T10:38:03;93417.34;;;14.10;40.07
49545;BME280;74870;42.636;23.302;2024-03-17T10:40:32;93405.28;;;14.17;40.40
49545;BME280;74870;42.636;23.302;2024-03-17T10:43:00;93418.81;;;14.24;40.34
49545;BME280;74870;42.636;23.302;2024-03-17T10:45:27;93420.84;;;14.27;41.07
49545;BME280;74870;42.636;23.302;2024-03-17T10:47:56;93426.31;;;14.31;40.19
49545;BME280;74870;42.636;23.302;2024-03-17T10:50:29;93421.47;;;13.94;40.12
49545;BME280;74870;42.636;23.302;2024-03-17T10:53:03;93418.72;;;13.99;40.43
49545;BME280;74870;42.636;23.302;2024-03-17T10:55:32;93413.84;;;14.23;40.15
49545;BME280;74870;42.636;23.302;2024-03-17T10:58:00;93416.41;;;14.37;39.54
49545;BME280;74870;42.636;23.302;2024-03-17T11:00:27;93403.81;;;14.34;38.26
49545;BME280;74870;42.636;23.302;2024-03-17T11:02:55;93401.56;;;14.27;38.41
49545;BME280;74870;42.636;23.302;2024-03-17T11:05:29;93404.72;;;14.29;38.64
49545;BME280;74870;42.636;23.302;2024-03-17T11:08:01;93401.97;;;14.12;38.34
49545;BME280;74870;42.636;23.302;2024-03-17T11:10:33;93401.50;;;14.01;38.39
49545;BME280;74870;42.636;23.302;2024-03-17T11:13:01;93402.44;;;14.14;39.16
49545;BME280;74870;42.636;23.302;2024-03-17T11:20:34;93390.78;;;14.46;41.25
49545;BME280;74870;42.636;23.302;2024-03-17T11:23:00;93393.63;;;14.58;41.76
49545;BME280;74870;42.636;23.302;2024-03-17T11:38:57;93381.09;;;15.06;41.52
49545;BME280;74870;42.636;23.302;2024-03-17T11:41:43;93375.19;;;15.00;42.65
49545;BME280;74870;42.636;23.302;2024-03-17T11:46:57;93377.16;;;15.38;41.62
49545;BME280;74870;42.636;23.302;2024-03-17T11:51:50;93356.78;;;15.30;40.04
49545;BME280;74870;42.636;23.302;2024-03-17T11:54:17;93367.38;;;15.38;39.21
49545;BME280;74870;42.636;23.302;2024-03-17T11:56:48;93366.59;;;15.29;38.13
49545;BME280;74870;42.636;23.302;2024-03-17T11:59:15;93351.69;;;15.25;36.91
49545;BME280;74870;42.636;23.302;2024-03-17T12:01:44;93334.28;;;14.72;37.50
49545;BME280;74870;42.636;23.302;2024-03-17T12:04:09;93333.03;;;14.78;38.08
49545;BME280;74870;42.636;23.302;2024-03-17T12:06:35;93363.19;;;15.03;37.44
49545;BME280;74870;42.636;23.302;2024-03-17T12:09:16;93365.06;;;15.02;37.44
49545;BME280;74870;42.636;23.302;2024-03-17T12:11:42;93359.63;;;14.82;37.59
49545;BME280;74870;42.636;23.302;2024-03-17T12:14:15;93364.03;;;14.30;38.55
49545;BME280;74870;42.636;23.302;2024-03-17T12:19:20;93344.16;;;13.93;39.86
49545;BME280;74870;42.636;23.302;2024-03-17T12:21:52;93353.97;;;13.71;40.08
49545;BME280;74870;42.636;23.302;2024-03-17T12:24:23;93364.72;;;13.74;40.85
49545;BME280;74870;42.636;23.302;2024-03-17T12:26:50;93356.78;;;13.74;40.80
49545;BME280;74870;42.636;23.302;2024-03-17T12:29:23;93363.19;;;13.82;41.43
49545;BME280;74870;42.636;23.302;2024-03-17T12:31:50;93305.28;;;13.46;41.32
49545;BME280;74870;42.636;23.302;2024-03-17T12:34:18;93374.03;;;13.80;42.46
49545;BME280;74870;42.636;23.302;2024-03-17T12:36:44;93363.63;;;13.75;42.31
49545;BME280;74870;42.636;23.302;2024-03-17T12:39:29;93352.66;;;13.60;43.00
49545;BME280;74870;42.636;23.302;2024-03-17T12:44:39;93355.25;;;13.73;44.29
49545;BME280;74870;42.636;23.302;2024-03-17T12:47:14;93351.25;;;13.84;44.80
49545;BME280;74870;42.636;23.302;2024-03-17T12:49:45;93351.56;;;13.83;44.56
49545;BME280;74870;42.636;23.302;2024-03-17T12:52:18;93354.50;;;13.81;44.89
49545;BME280;74870;42.636;23.302;2024-03-17T12:54:45;93348.47;;;13.89;45.24
49545;BME280;74870;42.636;23.302;2024-03-17T12:57:20;93351.13;;;13.89;46.02
49545;BME280;74870;42.636;23.302;2024-03-17T13:00:17;93355.47;;;13.94;45.54
49545;BME280;74870;42.636;23.302;2024-03-17T13:02:58;93353.34;;;13.65;46.34
49545;BME280;74870;42.636;23.302;2024-03-17T13:05:24;93342.66;;;13.70;46.63
49545;BME280;74870;42.636;23.302;2024-03-17T13:07:50;93344.38;;;13.75;46.61
49545;BME280;74870;42.636;23.302;2024-03-17T13:10:19;93348.28;;;13.77;47.61
49545;BME280;74870;42.636;23.302;2024-03-17T13:12:48;93350.66;;;13.87;47.03
49545;BME280;74870;42.636;23.302;2024-03-17T13:15:17;93339.56;;;13.77;46.70
49545;BME280;74870;42.636;23.302;2024-03-17T13:17:44;93337.31;;;13.62;46.98
49545;BME280;74870;42.636;23.302;2024-03-17T13:20:14;93347.19;;;13.78;47.26
49545;BME280;74870;42.636;23.302;2024-03-17T13:22:44;93344.06;;;13.76;47.20
49545;BME280;74870;42.636;23.302;2024-03-17T13:25:17;93343.25;;;13.67;47.40
49545;BME280;74870;42.636;23.302;2024-03-17T13:27:44;93346.97;;;13.66;47.25